Pagina principale
METAR-TAF:

METAR-TAF

Aeroporti :

Cervia, Italia

Aeroporto di Cervia-Pisignano

latitudine: 44-13N, longitudine: 012-18E, altezza: 6 m

Osservazione

Il bollettino è stato emesso 59 minuti fa, alle 14:55 UTC
Vento 1 kt da ovest/nord-ovest
Temperature 13°C
Umidità 72%
Pressione 1011 hPa
Visibilità 10 km o più
nessuna nube inferiore a 1500 m e nessun cumulonembo

METAR: LIPC 191455Z 29001KT CAVOK 13/08 Q1011 RMK SKC VIS MIN 9999 WIND THR11 30002KT WIND THR29 /////KT BLU

Ora: 16:54 (15:54 UTC)

Previsione

Il bollettino è stato emesso 1 ora e 54 minuti fa, alle 14:00 UTC
Previsione valida dal 19 alle 15 UTC al 19 alle 24 UTC
Vento 10 kt da ovest/nord-ovest
Visibilità 10 km o più
Poco nuvoloso ad un'altezza di 3000 ft
Probabilità 30% :
Temporaneamente
dal 19 alle 15 UTC al 19 alle 18 UTC
Vento 15 kt da ovest/nord-ovest con raffiche fino a 25 kt

TAF: LIPC 191400Z 1915/1924 30010KT 9999 FEW030 PROB30 TEMPO 1915/1918 30015G25KT

Osservazioni e previsioni meteorologiche di più di 4000 aeroporti (messaggi METAR e TAF).

Le stazioni disponibili sono rappresentate dai dischi gialli e rossi sulla carta.

Puntare il mouse per vedere il nome della stazione.

Clicca sopra per visualizzare le osservazioni e previsioni meteorologiche.

Per cambiare la mappa : fare clic sui pulsanti verdi con una croce nera per ingrandire, il pulsante verde con un trattino per diminuire, o sulla freccia verde per le mappe adiacenti.


METAR-TAF: